Time;durP1;ratioP1;P1;durP2;ratioP2;P2;SDS_P1;SDS_P2;PMS_P1;PMS_P2;Temp;Humidity;BMP_temperature;BMP_pressure;BME280_temperature;BME280_humidity;BME280_pressure;Samples;Min_cycle;Max_cycle;Signal;HPM_P1;HPM_P2
2023/05/24 00:00:34;;;;;;;;;;;;;;;;;;2195892;59;2787;-21
2023/05/24 00:03:05;;;;;;;;;;;;;;;;;;2197261;59;2437;-21
2023/05/24 00:05:36;;;;;;;;;;;;;;;;;;2198870;66;3241;-21
2023/05/24 00:08:06;;;;;;;;;;;;;;;;;;2197031;67;1983;-21
2023/05/24 00:10:37;;;;;;;;;;;;;;;;;;2195616;66;3361;-21
2023/05/24 00:13:07;;;;;;;;;;;;;;;;;;2197637;67;2632;-21
2023/05/24 00:15:37;;;;;;;;;;;;;;;;;;2196811;66;2706;-21
2023/05/24 00:18:07;;;;;;;;;;;;;;;;;;2196919;66;2052;-21
2023/05/24 00:20:37;;;;;;;;;;;;;;;;;;2196729;67;2605;-20
2023/05/24 00:23:08;;;;;;;;;;;;;;;;;;2197983;67;2797;-21
2023/05/24 00:25:38;;;;;;;;;;;;;;;;;;2197519;66;2676;-21
2023/05/24 00:28:09;;;;;;;;;;;;;;;;;;2197191;66;2804;-21
2023/05/24 00:30:39;;;;;;;;;;;;;;;;;;2198070;67;3654;-21
2023/05/24 00:33:09;;;;;;;;;;;;;;;;;;2196884;66;3140;-21
2023/05/24 00:35:39;;;;;;;;;;;;;;;;;;2197669;59;3100;-21
2023/05/24 00:38:10;;;;;;;;;;;;;;;;;;2198867;59;3329;-22
2023/05/24 00:40:40;;;;;;;;;;;;;;;;;;2197481;66;3199;-22
2023/05/24 00:43:10;;;;;;;;;;;;;;;;;;2197341;59;2719;-22
2023/05/24 00:45:41;;;;;;;;;;;;;;;;;;2197001;59;3042;-22
2023/05/24 00:48:11;;;;;;;;;;;;;;;;;;2197225;59;3029;-21
2023/05/24 00:50:41;;;;;;;;;;;;;;;;;;2197179;59;3554;-22
2023/05/24 00:53:11;;;;;;;;;;;;;;;;;;2196849;59;2753;-22
2023/05/24 00:55:41;;;;;;;;;;;;;;;;;;2197239;60;2206;-21
2023/05/24 00:58:12;;;;;;;;;;;;;;;;;;2196836;59;3347;-22
2023/05/24 01:00:44;;;;;;;;;;;;;;;;;;2197520;66;3492;-22
2023/05/24 01:03:14;;;;;;;;;;;;;;;;;;2197016;66;3347;-22
2023/05/24 01:05:44;;;;;;;;;;;;;;;;;;2197458;67;2925;-22
2023/05/24 01:08:41;;;;;;;;;;;;;;;;;;2197181;67;2953;-22
2023/05/24 01:11:30;;;;;;;;;;;;;;;;;;2197723;59;3400;-22
2023/05/24 01:14:04;;;;;;;;;;;;;;;;;;2198138;59;3323;-22
2023/05/24 01:16:45;;;;;;;;;;;;;;;;;;2197470;67;2958;-22
2023/05/24 01:19:26;;;;;;;;;;;;;;;;;;2196287;59;2858;-22
2023/05/24 01:22:15;;;;;;;;;;;;;;;;;;2196916;66;2964;-22
2023/05/24 01:25:02;;;;;;;;;;;;;;;;;;2198717;59;2658;-22
2023/05/24 01:27:35;;;;;;;;;;;;;;;;;;2198496;66;2749;-22
2023/05/24 01:30:06;;;;;;;;;;;;;;;;;;2197925;59;2807;-22
2023/05/24 01:32:37;;;;;;;;;;;;;;;;;;2195579;66;2936;-22
2023/05/24 01:35:08;;;;;;;;;;;;;;;;;;2196287;59;3061;-22
2023/05/24 01:37:38;;;;;;;;;;;;;;;;;;2197714;59;2944;-21
2023/05/24 01:40:09;;;;;;;;;;;;;;;;;;2197868;67;3171;-22
2023/05/24 01:42:43;;;;;;;;;;;;;;;;;;2199022;66;3618;-22
2023/05/24 01:45:23;;;;;;;;;;;;;;;;;;2197198;59;2598;-22
2023/05/24 01:47:56;;;;;;;;;;;;;;;;;;2195860;59;2766;-22
2023/05/24 01:50:37;;;;;;;;;;;;;;;;;;2196393;59;2845;-21
2023/05/24 01:53:11;;;;;;;;;;;;;;;;;;2194166;67;2068;-22
2023/05/24 01:55:42;;;;;;;;;;;;;;;;;;2197391;59;3470;-21
2023/05/24 01:58:13;;;;;;;;;;;;;;;;;;2194841;59;3091;-21
2023/05/24 02:00:44;;;;;;;;;;;;;;;;;;2196386;59;3086;-21
2023/05/24 02:03:17;;;;;;;;;;;;;;;;;;2196268;59;2683;-22
2023/05/24 02:05:47;;;;;;;;;;;;;;;;;;2197697;66;3741;-22
2023/05/24 02:08:18;;;;;;;;;;;;;;;;;;2196405;66;3610;-22
2023/05/24 02:10:48;;;;;;;;;;;;;;;;;;2198054;66;3224;-22
2023/05/24 02:13:18;;;;;;;;;;;;;;;;;;2197954;66;3761;-22
2023/05/24 02:15:50;;;;;;;;;;;;;;;;;;2197238;66;3688;-22
2023/05/24 02:18:21;;;;;;;;;;;;;;;;;;2195980;66;3383;-22
2023/05/24 02:20:52;;;;;;;;;;;;;;;;;;2196856;67;3078;-22
2023/05/24 02:23:22;;;;;;;;;;;;;;;;;;2195659;66;2888;-22
2023/05/24 02:25:54;;;;;;;;;;;;;;;;;;2197467;66;3060;-21
2023/05/24 02:28:25;;;;;;;;;;;;;;;;;;2198007;66;2821;-21
2023/05/24 02:30:55;;;;;;;;;;;;;;;;;;2197249;67;3008;-22
2023/05/24 02:33:25;;;;;;;;;;;;;;;;;;2196642;66;2889;-21
2023/05/24 02:35:56;;;;;;;;;;;;;;;;;;2196728;59;3213;-22
2023/05/24 02:38:26;;;;;;;;;;;;;;;;;;2195993;59;3082;-21
2023/05/24 02:40:56;;;;;;;;;;;;;;;;;;2197528;66;3111;-21
2023/05/24 02:43:26;;;;;;;;;;;;;;;;;;2197919;59;3153;-22
2023/05/24 02:45:56;;;;;;;;;;;;;;;;;;2198073;59;3228;-22
2023/05/24 02:48:26;;;;;;;;;;;;;;;;;;2197157;59;2632;-22
2023/05/24 02:50:57;;;;;;;;;;;;;;;;;;2197480;59;3079;-22
2023/05/24 02:53:28;;;;;;;;;;;;;;;;;;2195979;67;2939;-22
2023/05/24 02:55:58;;;;;;;;;;;;;;;;;;2197416;59;3220;-22
2023/05/24 02:58:29;;;;;;;;;;;;;;;;;;2197610;59;3062;-22
2023/05/24 03:01:00;;;;;;;;;;;;;;;;;;2197156;59;3082;-22
2023/05/24 03:03:30;;;;;;;;;;;;;;;;;;2196147;59;2916;-22
2023/05/24 03:06:01;;;;;;;;;;;;;;;;;;2197219;66;2710;-22
2023/05/24 03:08:31;;;;;;;;;;;;;;;;;;2195963;67;2786;-22
2023/05/24 03:11:01;;;;;;;;;;;;;;;;;;2196430;66;3242;-22
2023/05/24 03:13:32;;;;;;;;;;;;;;;;;;2194708;66;3165;-22
2023/05/24 03:16:02;;;;;;;;;;;;;;;;;;2195865;66;2770;-22
2023/05/24 03:18:32;;;;;;;;;;;;;;;;;;2197475;66;2971;-22
2023/05/24 03:21:02;;;;;;;;;;;;;;;;;;2196418;66;3156;-21
2023/05/24 03:23:33;;;;;;;;;;;;;;;;;;2196165;66;2806;-22
2023/05/24 03:26:03;;;;;;;;;;;;;;;;;;2196163;59;2091;-22
2023/05/24 03:28:34;;;;;;;;;;;;;;;;;;2196170;66;3138;-22
2023/05/24 03:31:05;;;;;;;;;;;;;;;;;;2196029;66;3067;-22
2023/05/24 03:33:35;;;;;;;;;;;;;;;;;;2197229;67;2922;-22
2023/05/24 03:36:05;;;;;;;;;;;;;;;;;;2197591;59;2851;-22
2023/05/24 03:38:36;;;;;;;;;;;;;;;;;;2197518;59;2840;-22
2023/05/24 03:41:06;;;;;;;;;;;;;;;;;;2197305;66;2971;-22
2023/05/24 03:43:36;;;;;;;;;;;;;;;;;;2196936;59;2957;-22
2023/05/24 03:46:06;;;;;;;;;;;;;;;;;;2197608;66;2968;-22
2023/05/24 03:48:37;;;;;;;;;;;;;;;;;;2197741;66;3066;-22
2023/05/24 03:51:08;;;;;;;;;;;;;;;;;;2198243;59;2544;-22
2023/05/24 03:53:38;;;;;;;;;;;;;;;;;;2197469;67;3215;-22
2023/05/24 03:56:08;;;;;;;;;;;;;;;;;;2197533;59;2276;-22
2023/05/24 03:58:39;;;;;;;;;;;;;;;;;;2197659;59;3079;-22
2023/05/24 04:01:10;;;;;;;;;;;;;;;;;;2195755;59;2921;-21
2023/05/24 04:03:55;;;;;;;;;;;;;;;;;;2194385;67;2966;-22
2023/05/24 04:06:27;;;;;;;;;;;;;;;;;;2196859;66;2647;-22
2023/05/24 04:08:58;;;;;;;;;;;;;;;;;;2196866;66;3201;-21
2023/05/24 04:11:29;;;;;;;;;;;;;;;;;;2196432;66;2899;-22
2023/05/24 04:13:59;;;;;;;;;;;;;;;;;;2195950;66;3249;-22
2023/05/24 04:16:32;;;;;;;;;;;;;;;;;;2196386;67;3365;-22
2023/05/24 04:19:03;;;;;;;;;;;;;;;;;;2196394;66;3015;-22
2023/05/24 04:21:33;;;;;;;;;;;;;;;;;;2197552;66;2769;-22
2023/05/24 04:24:04;;;;;;;;;;;;;;;;;;2196634;67;2070;-22
2023/05/24 04:26:36;;;;;;;;;;;;;;;;;;2196435;66;3216;-22
2023/05/24 04:29:07;;;;;;;;;;;;;;;;;;2196826;67;2934;-21
2023/05/24 04:31:42;;;;;;;;;;;;;;;;;;2197405;67;2549;-22
2023/05/24 04:34:13;;;;;;;;;;;;;;;;;;2197004;66;2975;-22
2023/05/24 04:36:43;;;;;;;;;;;;;;;;;;2193837;59;3242;-22
2023/05/24 04:39:13;;;;;;;;;;;;;;;;;;2197456;59;2980;-22
2023/05/24 04:41:44;;;;;;;;;;;;;;;;;;2197914;66;2842;-22
2023/05/24 04:44:14;;;;;;;;;;;;;;;;;;2197714;60;2929;-22
2023/05/24 04:46:44;;;;;;;;;;;;;;;;;;2197301;67;3410;-22
2023/05/24 04:49:14;;;;;;;;;;;;;;;;;;2196956;59;3137;-22
2023/05/24 04:51:45;;;;;;;;;;;;;;;;;;2196718;59;3017;-21
2023/05/24 04:54:16;;;;;;;;;;;;;;;;;;2199116;59;2746;-22
2023/05/24 04:56:47;;;;;;;;;;;;;;;;;;2198111;59;3061;-22
2023/05/24 04:59:17;;;;;;;;;;;;;;;;;;2197950;59;2678;-22
2023/05/24 05:01:47;;;;;;;;;;;;;;;;;;2197665;59;3154;-21
2023/05/24 05:04:17;;;;;;;;;;;;;;;;;;2197111;66;3234;-22
2023/05/24 05:06:48;;;;;;;;;;;;;;;;;;2197790;66;3431;-22
2023/05/24 05:09:18;;;;;;;;;;;;;;;;;;2197701;66;2965;-22
2023/05/24 05:11:49;;;;;;;;;;;;;;;;;;2197626;67;3687;-22
2023/05/24 05:14:19;;;;;;;;;;;;;;;;;;2196872;67;3803;-22
2023/05/24 05:16:49;;;;;;;;;;;;;;;;;;2196090;67;3298;-22
2023/05/24 05:19:20;;;;;;;;;;;;;;;;;;2196416;66;3032;-23
2023/05/24 05:21:50;;;;;;;;;;;;;;;;;;2197769;66;3899;-24
2023/05/24 05:24:20;;;;;;;;;;;;;;;;;;2197288;66;3198;-24
2023/05/24 05:26:51;;;;;;;;;;;;;;;;;;2199004;66;3607;-24
2023/05/24 05:29:21;;;;;;;;;;;;;;;;;;2196459;66;2933;-25
2023/05/24 05:31:51;;;;;;;;;;;;;;;;;;2196830;67;3213;-24
2023/05/24 05:34:21;;;;;;;;;;;;;;;;;;2195988;66;2878;-24
2023/05/24 05:36:54;;;;;;;;;;;;;;;;;;2196770;59;3795;-25
2023/05/24 05:39:25;;;;;;;;;;;;;;;;;;2197000;59;3211;-25
2023/05/24 05:41:55;;;;;;;;;;;;;;;;;;2196255;67;3015;-25
2023/05/24 05:44:28;;;;;;;;;;;;;;;;;;2196850;59;3067;-25
2023/05/24 05:46:58;;;;;;;;;;;;;;;;;;2197417;59;3013;-25
2023/05/24 05:49:28;;;;;;;;;;;;;;;;;;2196797;67;3058;-24
2023/05/24 05:51:59;;;;;;;;;;;;;;;;;;2196569;59;2867;-25
2023/05/24 05:54:30;;;;;;;;;;;;;;;;;;2196514;59;3166;-25
2023/05/24 05:57:03;;;;;;;;;;;;;;;;;;2196342;59;3543;-24
2023/05/24 05:59:34;;;;;;;;;;;;;;;;;;2199106;59;2409;-24
2023/05/24 06:02:05;;;;;;;;;;;;;;;;;;2197429;59;3177;-25
2023/05/24 06:04:35;;;;;;;;;;;;;;;;;;2197549;67;2984;-25
2023/05/24 06:07:05;;;;;;;;;;;;;;;;;;2197602;67;3453;-24
2023/05/24 06:09:36;;;;;;;;;;;;;;;;;;2197842;67;3436;-25
2023/05/24 06:12:06;;;;;;;;;;;;;;;;;;2197095;67;3292;-24
2023/05/24 06:14:37;;;;;;;;;;;;;;;;;;2196950;66;2985;-24
2023/05/24 06:17:08;;;;;;;;;;;;;;;;;;2195780;67;3522;-24
2023/05/24 06:19:38;;;;;;;;;;;;;;;;;;2197149;67;3211;-24
2023/05/24 06:22:08;;;;;;;;;;;;;;;;;;2196994;66;3398;-24
2023/05/24 06:24:38;;;;;;;;;;;;;;;;;;2197323;66;2756;-24
2023/05/24 06:27:09;;;;;;;;;;;;;;;;;;2195667;67;2936;-23
2023/05/24 06:29:39;;;;;;;;;;;;;;;;;;2196518;67;2881;-23
2023/05/24 06:32:09;;;;;;;;;;;;;;;;;;2198689;66;3167;-23
2023/05/24 06:34:40;;;;;;;;;;;;;;;;;;2196893;67;3512;-23
2023/05/24 06:37:14;;;;;;;;;;;;;;;;;;2196862;59;3182;-23
2023/05/24 06:39:44;;;;;;;;;;;;;;;;;;2197491;59;2835;-23
2023/05/24 06:42:15;;;;;;;;;;;;;;;;;;2195295;67;2939;-23
2023/05/24 06:44:45;;;;;;;;;;;;;;;;;;2195866;59;3435;-23
2023/05/24 06:47:15;;;;;;;;;;;;;;;;;;2193506;59;2777;-23
2023/05/24 06:49:46;;;;;;;;;;;;;;;;;;2196716;66;3135;-23
2023/05/24 06:52:17;;;;;;;;;;;;;;;;;;2195891;59;2923;-23
2023/05/24 06:54:48;;;;;;;;;;;;;;;;;;2195262;59;2615;-23
2023/05/24 06:57:18;;;;;;;;;;;;;;;;;;2195332;59;2859;-23
2023/05/24 06:59:48;;;;;;;;;;;;;;;;;;2197084;59;3072;-23
2023/05/24 07:02:22;;;;;;;;;;;;;;;;;;2197150;59;3580;-23
2023/05/24 07:04:53;;;;;;;;;;;;;;;;;;2196066;66;3273;-23
2023/05/24 07:07:23;;;;;;;;;;;;;;;;;;2195066;59;3254;-23
2023/05/24 07:09:54;;;;;;;;;;;;;;;;;;2195289;59;2890;-23
2023/05/24 07:12:24;;;;;;;;;;;;;;;;;;2196126;60;3053;-23
2023/05/24 07:14:55;;;;;;;;;;;;;;;;;;2196355;66;3438;-23
2023/05/24 07:17:25;;;;;;;;;;;;;;;;;;2195120;66;3518;-23
2023/05/24 07:19:55;;;;;;;;;;;;;;;;;;2196203;67;3229;-23
2023/05/24 07:22:27;;;;;;;;;;;;;;;;;;2195971;66;2867;-23
2023/05/24 07:24:57;;;;;;;;;;;;;;;;;;2195902;66;3684;-23
2023/05/24 07:27:27;;;;;;;;;;;;;;;;;;2196059;67;2854;-23
2023/05/24 07:29:58;;;;;;;;;;;;;;;;;;2195365;66;3725;-23
2023/05/24 07:32:28;;;;;;;;;;;;;;;;;;2196500;67;2464;-23
2023/05/24 07:34:58;;;;;;;;;;;;;;;;;;2198711;59;2684;-23
2023/05/24 07:37:29;;;;;;;;;;;;;;;;;;2194838;67;3151;-23
2023/05/24 07:39:59;;;;;;;;;;;;;;;;;;2197844;59;3040;-23
2023/05/24 07:42:30;;;;;;;;;;;;;;;;;;2194654;66;3568;-23
2023/05/24 07:45:00;;;;;;;;;;;;;;;;;;2194646;59;2711;-23
2023/05/24 07:47:30;;;;;;;;;;;;;;;;;;2194842;59;3239;-22
2023/05/24 07:50:00;;;;;;;;;;;;;;;;;;2193068;59;2890;-22
2023/05/24 07:52:31;;;;;;;;;;;;;;;;;;2196117;59;2476;-22
2023/05/24 07:55:01;;;;;;;;;;;;;;;;;;2193500;59;2837;-23
2023/05/24 07:57:32;;;;;;;;;;;;;;;;;;2195675;59;2709;-22
2023/05/24 08:00:13;;;;;;;;;;;;;;;;;;2197057;66;2757;-22
2023/05/24 08:02:45;;;;;;;;;;;;;;;;;;2197246;59;2750;-22
2023/05/24 08:05:15;;;;;;;;;;;;;;;;;;2195997;66;2221;-22
2023/05/24 08:07:45;;;;;;;;;;;;;;;;;;2199028;66;2857;-22
2023/05/24 08:10:17;;;;;;;;;;;;;;;;;;2197090;67;3038;-22
2023/05/24 08:12:50;;;;;;;;;;;;;;;;;;2195146;59;3686;-22
2023/05/24 08:15:20;;;;;;;;;;;;;;;;;;2195062;66;3236;-22
2023/05/24 08:17:50;;;;;;;;;;;;;;;;;;2192989;66;3405;-23
2023/05/24 08:20:20;;;;;;;;;;;;;;;;;;2194579;66;3789;-22
2023/05/24 08:22:51;;;;;;;;;;;;;;;;;;2196750;67;3126;-22
2023/05/24 08:25:21;;;;;;;;;;;;;;;;;;2197093;59;2989;-22
2023/05/24 08:27:52;;;;;;;;;;;;;;;;;;2197623;59;3044;-22
2023/05/24 08:30:22;;;;;;;;;;;;;;;;;;2196371;59;1965;-22
2023/05/24 08:32:52;;;;;;;;;;;;;;;;;;2196293;66;3259;-22
2023/05/24 08:35:22;;;;;;;;;;;;;;;;;;2192000;59;2723;-22
2023/05/24 08:37:53;;;;;;;;;;;;;;;;;;2195552;66;2700;-22
2023/05/24 08:40:23;;;;;;;;;;;;;;;;;;2198513;66;2299;-22
2023/05/24 08:42:55;;;;;;;;;;;;;;;;;;2196171;59;2768;-22
2023/05/24 08:45:28;;;;;;;;;;;;;;;;;;2195097;59;2829;-22
2023/05/24 08:47:58;;;;;;;;;;;;;;;;;;2197175;66;3328;-22
2023/05/24 08:50:29;;;;;;;;;;;;;;;;;;2197046;59;2783;-22
2023/05/24 08:53:05;;;;;;;;;;;;;;;;;;2197324;59;3407;-22
2023/05/24 08:55:36;;;;;;;;;;;;;;;;;;2194542;59;2219;-22
2023/05/24 08:58:09;;;;;;;;;;;;;;;;;;2196824;59;2869;-22
2023/05/24 09:00:40;;;;;;;;;;;;;;;;;;2195946;59;3069;-22
2023/05/24 09:03:12;;;;;;;;;;;;;;;;;;2194971;59;2456;-22
2023/05/24 09:05:43;;;;;;;;;;;;;;;;;;2196103;66;2398;-22
2023/05/24 09:08:17;;;;;;;;;;;;;;;;;;2194554;59;2500;-22
2023/05/24 09:10:47;;;;;;;;;;;;;;;;;;2198621;66;2350;-22
2023/05/24 09:13:18;;;;;;;;;;;;;;;;;;2196623;59;2109;-22
2023/05/24 09:15:48;;;;;;;;;;;;;;;;;;2194618;59;2468;-22
2023/05/24 09:18:18;;;;;;;;;;;;;;;;;;2194626;59;2216;-22
2023/05/24 09:20:49;;;;;;;;;;;;;;;;;;2196038;59;3161;-22
2023/05/24 09:23:19;;;;;;;;;;;;;;;;;;2196739;66;2165;-22
2023/05/24 09:25:50;;;;;;;;;;;;;;;;;;2197038;66;3488;-22
2023/05/24 09:28:20;;;;;;;;;;;;;;;;;;2196900;59;2695;-22
2023/05/24 09:30:57;;;;;;;;;;;;;;;;;;2195135;66;3354;-22
2023/05/24 09:33:32;;;;;;;;;;;;;;;;;;2195501;59;3331;-22
2023/05/24 09:36:03;;;;;;;;;;;;;;;;;;2196022;59;3247;-22
2023/05/24 09:38:34;;;;;;;;;;;;;;;;;;2195209;59;3009;-22
2023/05/24 09:41:05;;;;;;;;;;;;;;;;;;2195527;59;2279;-22
2023/05/24 09:43:46;;;;;;;;;;;;;;;;;;2197571;59;2654;-22
2023/05/24 09:46:17;;;;;;;;;;;;;;;;;;2196331;66;2444;-21
2023/05/24 09:48:57;;;;;;;;;;;;;;;;;;2195570;59;3286;-21
2023/05/24 09:51:28;;;;;;;;;;;;;;;;;;2195700;59;2670;-21
2023/05/24 09:54:02;;;;;;;;;;;;;;;;;;2196474;59;3063;-21
2023/05/24 09:56:32;;;;;;;;;;;;;;;;;;2196246;59;3277;-21
2023/05/24 09:59:07;;;;;;;;;;;;;;;;;;2199137;59;2799;-21
2023/05/24 10:01:37;;;;;;;;;;;;;;;;;;2196438;59;3430;-21
2023/05/24 10:04:07;;;;;;;;;;;;;;;;;;2196854;66;3313;-21
2023/05/24 10:06:38;;;;;;;;;;;;;;;;;;2194972;59;2399;-21
2023/05/24 10:09:08;;;;;;;;;;;;;;;;;;2195736;59;2088;-21
2023/05/24 10:11:40;;;;;;;;;;;;;;;;;;2197084;66;3685;-21
2023/05/24 10:14:11;;;;;;;;;;;;;;;;;;2197055;59;2489;-21
2023/05/24 10:16:41;;;;;;;;;;;;;;;;;;2197705;66;3571;-21
2023/05/24 10:19:11;;;;;;;;;;;;;;;;;;2197661;66;4148;-21
2023/05/24 10:21:42;;;;;;;;;;;;;;;;;;2196095;59;2690;-21
2023/05/24 10:24:12;;;;;;;;;;;;;;;;;;2197006;66;2687;-21
2023/05/24 10:26:46;;;;;;;;;;;;;;;;;;2195686;66;2620;-21
2023/05/24 10:29:26;;;;;;;;;;;;;;;;;;2196453;59;2032;-21
2023/05/24 10:31:57;;;;;;;;;;;;;;;;;;2196356;66;2767;-21
2023/05/24 10:34:29;;;;;;;;;;;;;;;;;;2196175;59;2885;-20
2023/05/24 10:37:00;;;;;;;;;;;;;;;;;;2196265;59;2463;-21
2023/05/24 10:39:32;;;;;;;;;;;;;;;;;;2197549;59;2136;-21
2023/05/24 10:42:05;;;;;;;;;;;;;;;;;;2195766;59;2614;-21
2023/05/24 10:44:36;;;;;;;;;;;;;;;;;;2196610;59;4744;-21
2023/05/24 10:47:12;;;;;;;;;;;;;;;;;;2197597;59;4450;-21
2023/05/24 10:49:53;;;;;;;;;;;;;;;;;;2196929;59;2669;-21
2023/05/24 10:52:36;;;;;;;;;;;;;;;;;;2195806;59;2394;-21
2023/05/24 10:55:08;;;;;;;;;;;;;;;;;;2196464;59;2507;-21
2023/05/24 10:57:39;;;;;;;;;;;;;;;;;;2195762;59;2384;-21
2023/05/24 11:00:26;;;;;;;;;;;;;;;;;;2196030;59;1690;-21
2023/05/24 11:03:07;;;;;;;;;;;;;;;;;;2195311;59;2627;-21
2023/05/24 11:05:55;;;;;;;;;;;;;;;;;;2196136;66;1222;-21
2023/05/24 11:08:26;;;;;;;;;;;;;;;;;;2196313;59;2148;-21
2023/05/24 11:11:08;;;;;;;;;;;;;;;;;;2196398;59;1660;-21
2023/05/24 11:13:42;;;;;;;;;;;;;;;;;;2196005;67;1986;-21
2023/05/24 11:16:33;;;;;;;;;;;;;;;;;;2195872;59;2350;-21
2023/05/24 11:19:16;;;;;;;;;;;;;;;;;;2196474;59;2222;-21
2023/05/24 11:21:47;;;;;;;;;;;;;;;;;;2194695;59;2655;-21
2023/05/24 11:24:18;;;;;;;;;;;;;;;;;;2195592;66;2451;-21
2023/05/24 11:26:49;;;;;;;;;;;;;;;;;;2196044;66;3093;-21
2023/05/24 11:29:21;;;;;;;;;;;;;;;;;;2195065;66;1741;-21
2023/05/24 11:31:52;;;;;;;;;;;;;;;;;;2195918;66;2636;-21
2023/05/24 11:34:26;;;;;;;;;;;;;;;;;;2196401;59;2178;-21
2023/05/24 11:37:04;;;;;;;;;;;;;;;;;;2194879;59;2907;-21
2023/05/24 11:39:35;;;;;;;;;;;;;;;;;;2196534;59;2373;-21
2023/05/24 11:42:06;;;;;;;;;;;;;;;;;;2196753;67;2798;-21
2023/05/24 11:44:37;;;;;;;;;;;;;;;;;;2196414;59;2493;-21
2023/05/24 11:47:07;;;;;;;;;;;;;;;;;;2196314;59;2379;-21
2023/05/24 11:49:37;;;;;;;;;;;;;;;;;;2195428;59;2442;-21
2023/05/24 11:52:08;;;;;;;;;;;;;;;;;;2198418;59;2320;-21
2023/05/24 11:54:38;;;;;;;;;;;;;;;;;;2195425;59;2618;-21
2023/05/24 11:57:11;;;;;;;;;;;;;;;;;;2195443;66;2481;-21
2023/05/24 11:59:45;;;;;;;;;;;;;;;;;;2197267;59;2478;-21
2023/05/24 12:02:15;;;;;;;;;;;;;;;;;;2197672;59;1834;-21
2023/05/24 12:04:46;;;;;;;;;;;;;;;;;;2197350;66;2897;-21
2023/05/24 12:07:16;;;;;;;;;;;;;;;;;;2196951;66;2597;-21
2023/05/24 12:09:46;;;;;;;;;;;;;;;;;;2197079;66;2543;-21
2023/05/24 12:12:17;;;;;;;;;;;;;;;;;;2197688;60;2244;-21
2023/05/24 12:14:53;;;;;;;;;;;;;;;;;;2196815;66;2476;-21
2023/05/24 12:17:24;;;;;;;;;;;;;;;;;;2196800;66;2688;-21
2023/05/24 12:19:54;;;;;;;;;;;;;;;;;;2197356;66;2674;-21
2023/05/24 12:22:27;;;;;;;;;;;;;;;;;;2197246;66;2895;-21
2023/05/24 12:24:57;;;;;;;;;;;;;;;;;;2198772;66;2583;-21
2023/05/24 12:27:29;;;;;;;;;;;;;;;;;;2196783;59;2473;-21
2023/05/24 12:30:06;;;;;;;;;;;;;;;;;;2196986;66;3467;-21
2023/05/24 12:32:36;;;;;;;;;;;;;;;;;;2196213;67;1970;-21
2023/05/24 12:35:08;;;;;;;;;;;;;;;;;;2196330;59;3179;-21
2023/05/24 12:37:38;;;;;;;;;;;;;;;;;;2198349;59;2553;-21
2023/05/24 12:40:19;;;;;;;;;;;;;;;;;;2197080;67;3631;-21
2023/05/24 12:42:50;;;;;;;;;;;;;;;;;;2195901;59;2531;-21
2023/05/24 12:45:23;;;;;;;;;;;;;;;;;;2196147;59;2397;-21
2023/05/24 12:47:54;;;;;;;;;;;;;;;;;;2194506;59;2165;-21
2023/05/24 12:50:25;;;;;;;;;;;;;;;;;;2196309;59;2833;-21
2023/05/24 12:52:55;;;;;;;;;;;;;;;;;;2197022;59;2679;-21
2023/05/24 12:55:26;;;;;;;;;;;;;;;;;;2197373;66;2513;-21
2023/05/24 12:57:57;;;;;;;;;;;;;;;;;;2197564;59;2529;-21
2023/05/24 13:00:27;;;;;;;;;;;;;;;;;;2197034;59;1806;-21
2023/05/24 13:02:58;;;;;;;;;;;;;;;;;;2196466;59;2616;-21
2023/05/24 13:05:29;;;;;;;;;;;;;;;;;;2196288;66;2333;-21
2023/05/24 13:07:59;;;;;;;;;;;;;;;;;;2195623;59;2605;-21
2023/05/24 13:10:29;;;;;;;;;;;;;;;;;;2194688;67;2681;-22
2023/05/24 13:13:00;;;;;;;;;;;;;;;;;;2196674;59;2526;-22
2023/05/24 13:15:30;;;;;;;;;;;;;;;;;;2196600;66;2632;-21
2023/05/24 13:18:00;;;;;;;;;;;;;;;;;;2195814;59;2018;-21
2023/05/24 13:20:30;;;;;;;;;;;;;;;;;;2196794;59;1589;-22
2023/05/24 13:23:01;;;;;;;;;;;;;;;;;;2195899;59;2737;-22
2023/05/24 13:25:34;;;;;;;;;;;;;;;;;;2195629;66;2416;-21
2023/05/24 13:28:04;;;;;;;;;;;;;;;;;;2196729;66;1788;-22
2023/05/24 13:30:35;;;;;;;;;;;;;;;;;;2196156;66;2514;-22
2023/05/24 13:33:05;;;;;;;;;;;;;;;;;;2196020;66;1792;-21
2023/05/24 13:35:36;;;;;;;;;;;;;;;;;;2196417;59;1471;-22
2023/05/24 13:38:07;;;;;;;;;;;;;;;;;;2196514;67;1981;-22
2023/05/24 13:40:39;;;;;;;;;;;;;;;;;;2195685;64;1697;-22
2023/05/24 13:43:09;;;;;;;;;;;;;;;;;;2193570;66;2836;-21
2023/05/24 13:45:39;;;;;;;;;;;;;;;;;;2198254;60;1778;-22
2023/05/24 13:48:10;;;;;;;;;;;;;;;;;;2195968;59;2081;-21
2023/05/24 13:50:40;;;;;;;;;;;;;;;;;;2196941;59;2575;-21
2023/05/24 13:53:11;;;;;;;;;;;;;;;;;;2195586;59;2384;-21
2023/05/24 13:55:41;;;;;;;;;;;;;;;;;;2197091;59;2835;-21
2023/05/24 13:58:11;;;;;;;;;;;;;;;;;;2195837;59;2215;-21
2023/05/24 14:00:45;;;;;;;;;;;;;;;;;;2196812;59;2410;-21
2023/05/24 14:03:15;;;;;;;;;;;;;;;;;;2195684;59;2460;-21
2023/05/24 14:05:46;;;;;;;;;;;;;;;;;;2195985;59;1683;-21
2023/05/24 14:08:16;;;;;;;;;;;;;;;;;;2195728;59;1880;-21
2023/05/24 14:10:48;;;;;;;;;;;;;;;;;;2195758;59;1366;-21
2023/05/24 14:13:19;;;;;;;;;;;;;;;;;;2195287;59;1392;-21
2023/05/24 14:15:49;;;;;;;;;;;;;;;;;;2196291;66;1141;-21
2023/05/24 14:18:20;;;;;;;;;;;;;;;;;;2195713;66;2218;-21
2023/05/24 14:20:50;;;;;;;;;;;;;;;;;;2194464;59;2212;-21
2023/05/24 14:23:20;;;;;;;;;;;;;;;;;;2193565;59;3427;-21
2023/05/24 14:25:53;;;;;;;;;;;;;;;;;;2195486;58;3439;-21
2023/05/24 14:28:23;;;;;;;;;;;;;;;;;;2195060;67;2649;-21
2023/05/24 14:30:54;;;;;;;;;;;;;;;;;;2194629;59;2390;-22
2023/05/24 14:33:24;;;;;;;;;;;;;;;;;;2195048;59;2477;-21
2023/05/24 14:35:54;;;;;;;;;;;;;;;;;;2192311;59;2328;-21
2023/05/24 14:38:27;;;;;;;;;;;;;;;;;;2195808;59;2163;-21
2023/05/24 14:40:59;;;;;;;;;;;;;;;;;;2197113;59;2357;-21
2023/05/24 14:43:29;;;;;;;;;;;;;;;;;;2198662;66;1686;-21
2023/05/24 14:45:59;;;;;;;;;;;;;;;;;;2196921;59;2631;-21
2023/05/24 14:48:29;;;;;;;;;;;;;;;;;;2197122;66;2058;-21
2023/05/24 14:51:00;;;;;;;;;;;;;;;;;;2197056;59;2065;-21
2023/05/24 14:53:30;;;;;;;;;;;;;;;;;;2196577;59;2439;-21
2023/05/24 14:56:02;;;;;;;;;;;;;;;;;;2196020;59;3345;-21
2023/05/24 14:58:32;;;;;;;;;;;;;;;;;;2195703;59;2479;-21
2023/05/24 15:01:03;;;;;;;;;;;;;;;;;;2197092;59;1471;-21
2023/05/24 15:03:33;;;;;;;;;;;;;;;;;;2196412;59;1689;-21
2023/05/24 15:06:04;;;;;;;;;;;;;;;;;;2195490;60;2352;-21
2023/05/24 15:08:37;;;;;;;;;;;;;;;;;;2196387;67;2010;-22
2023/05/24 15:11:07;;;;;;;;;;;;;;;;;;2197524;66;1437;-21
2023/05/24 15:13:38;;;;;;;;;;;;;;;;;;2194976;59;2381;-21
2023/05/24 15:16:08;;;;;;;;;;;;;;;;;;2196546;59;2362;-21
2023/05/24 15:18:38;;;;;;;;;;;;;;;;;;2195692;67;2174;-22
2023/05/24 15:21:08;;;;;;;;;;;;;;;;;;2196076;66;1509;-22
2023/05/24 15:23:38;;;;;;;;;;;;;;;;;;2194953;66;2670;-22
2023/05/24 15:26:09;;;;;;;;;;;;;;;;;;2195895;59;3138;-22
2023/05/24 15:28:39;;;;;;;;;;;;;;;;;;2196522;67;2947;-22
2023/05/24 15:31:10;;;;;;;;;;;;;;;;;;2195817;59;2873;-22
2023/05/24 15:33:40;;;;;;;;;;;;;;;;;;2196900;59;2112;-22
2023/05/24 15:36:13;;;;;;;;;;;;;;;;;;2197589;59;3069;-22
2023/05/24 15:38:43;;;;;;;;;;;;;;;;;;2196728;59;2617;-22
2023/05/24 15:41:13;;;;;;;;;;;;;;;;;;2196225;66;2224;-22
2023/05/24 15:43:49;;;;;;;;;;;;;;;;;;2196275;59;2734;-22
2023/05/24 15:46:20;;;;;;;;;;;;;;;;;;2196679;59;2404;-21
2023/05/24 15:48:50;;;;;;;;;;;;;;;;;;2210508;53;3694;-19
2023/05/24 15:51:21;;;;;;;;;;;;;;;;;;2220940;58;2223;-19
2023/05/24 15:53:51;;;;;;;;;;;;;;;;;;2222194;58;2341;-20
2023/05/24 15:56:22;;;;;;;;;;;;;;;;;;2222194;59;1950;-20
2023/05/24 15:58:52;;;;;;;;;;;;;;;;;;2218813;58;3240;-20
2023/05/24 16:01:22;;;;;;;;;;;;;;;;;;2218643;58;2886;-20
2023/05/24 16:03:53;;;;;;;;;;;;;;;;;;2218571;58;2481;-19
2023/05/24 16:06:23;;;;;;;;;;;;;;;;;;2218698;66;2083;-20
2023/05/24 16:08:56;;;;;;;;;;;;;;;;;;2219357;58;2656;-20
2023/05/24 16:11:26;;;;;;;;;;;;;;;;;;2218775;66;2487;-19
2023/05/24 16:13:57;;;;;;;;;;;;;;;;;;2218116;58;3075;-20
2023/05/24 16:16:27;;;;;;;;;;;;;;;;;;2217245;58;2244;-19
2023/05/24 16:18:58;;;;;;;;;;;;;;;;;;2217477;66;2815;-19
2023/05/24 16:21:28;;;;;;;;;;;;;;;;;;2218275;66;1785;-19
2023/05/24 16:23:58;;;;;;;;;;;;;;;;;;2218012;66;2376;-20
2023/05/24 16:26:32;;;;;;;;;;;;;;;;;;2216638;59;2183;-20
2023/05/24 16:29:02;;;;;;;;;;;;;;;;;;2217586;66;2342;-19
2023/05/24 16:31:32;;;;;;;;;;;;;;;;;;2217809;66;2211;-17
2023/05/24 16:34:02;;;;;;;;;;;;;;;;;;2218422;58;2658;-18
2023/05/24 16:36:33;;;;;;;;;;;;;;;;;;2218477;58;2544;-17
2023/05/24 16:39:03;;;;;;;;;;;;;;;;;;2218367;58;2407;-17
2023/05/24 16:41:36;;;;;;;;;;;;;;;;;;2217146;58;2182;-17
2023/05/24 16:44:06;;;;;;;;;;;;;;;;;;2217662;59;2406;-17
2023/05/24 16:46:37;;;;;;;;;;;;;;;;;;2217282;58;2512;-17
2023/05/24 16:49:07;;;;;;;;;;;;;;;;;;2218186;59;2216;-17
2023/05/24 16:51:37;;;;;;;;;;;;;;;;;;2217960;58;2514;-17
2023/05/24 16:54:08;;;;;;;;;;;;;;;;;;2219187;58;1677;-17
2023/05/24 16:56:41;;;;;;;;;;;;;;;;;;2219263;66;2182;-17
2023/05/24 16:59:11;;;;;;;;;;;;;;;;;;2218951;59;2349;-18
2023/05/24 17:01:43;;;;;;;;;;;;;;;;;;2218348;58;2411;-17
2023/05/24 17:04:14;;;;;;;;;;;;;;;;;;2217298;59;2811;-17
2023/05/24 17:06:44;;;;;;;;;;;;;;;;;;2214756;59;1614;-17
2023/05/24 17:09:15;;;;;;;;;;;;;;;;;;2218921;66;2288;-17
2023/05/24 17:11:45;;;;;;;;;;;;;;;;;;2218750;66;2596;-17
2023/05/24 17:14:16;;;;;;;;;;;;;;;;;;2216952;59;2728;-17
2023/05/24 17:16:46;;;;;;;;;;;;;;;;;;2218032;66;2701;-17
2023/05/24 17:19:19;;;;;;;;;;;;;;;;;;2214643;59;3070;-17
2023/05/24 17:21:50;;;;;;;;;;;;;;;;;;2219471;66;1626;-17
2023/05/24 17:24:21;;;;;;;;;;;;;;;;;;2219744;66;1518;-18
2023/05/24 17:26:51;;;;;;;;;;;;;;;;;;2217215;58;2566;-19
2023/05/24 17:29:22;;;;;;;;;;;;;;;;;;2217258;58;2494;-19
2023/05/24 17:31:52;;;;;;;;;;;;;;;;;;2218109;58;1864;-21